sensor_id;sensor_type;location;lat;lon;timestamp;P1;durP1;ratioP1;P2;durP2;ratioP2
85544;SDS011;75982;52.834;13.846;2024-01-30T00:01:55;9.15;;;5.15;;
85544;SDS011;75982;52.834;13.846;2024-01-30T00:04:24;11.35;;;5.88;;
85544;SDS011;75982;52.834;13.846;2024-01-30T00:06:50;10.30;;;5.38;;
85544;SDS011;75982;52.834;13.846;2024-01-30T00:09:17;11.35;;;5.72;;
85544;SDS011;75982;52.834;13.846;2024-01-30T00:11:44;10.65;;;6.13;;
85544;SDS011;75982;52.834;13.846;2024-01-30T00:14:11;12.98;;;6.22;;
85544;SDS011;75982;52.834;13.846;2024-01-30T00:16:38;10.25;;;5.75;;
85544;SDS011;75982;52.834;13.846;2024-01-30T00:19:04;8.57;;;4.97;;
85544;SDS011;75982;52.834;13.846;2024-01-30T00:21:33;8.25;;;5.60;;
85544;SDS011;75982;52.834;13.846;2024-01-30T00:23:59;7.82;;;5.13;;
85544;SDS011;75982;52.834;13.846;2024-01-30T00:26:26;8.45;;;5.18;;
85544;SDS011;75982;52.834;13.846;2024-01-30T00:28:53;8.43;;;4.72;;
85544;SDS011;75982;52.834;13.846;2024-01-30T00:31:19;8.02;;;4.80;;
85544;SDS011;75982;52.834;13.846;2024-01-30T00:33:46;7.47;;;4.32;;
85544;SDS011;75982;52.834;13.846;2024-01-30T00:36:13;8.88;;;4.32;;
85544;SDS011;75982;52.834;13.846;2024-01-30T00:38:41;8.85;;;4.22;;
85544;SDS011;75982;52.834;13.846;2024-01-30T00:41:08;7.35;;;4.47;;
85544;SDS011;75982;52.834;13.846;2024-01-30T00:43:34;7.78;;;4.75;;
85544;SDS011;75982;52.834;13.846;2024-01-30T00:46:01;8.93;;;5.10;;
85544;SDS011;75982;52.834;13.846;2024-01-30T00:48:28;8.43;;;4.15;;
85544;SDS011;75982;52.834;13.846;2024-01-30T00:50:55;9.07;;;5.13;;
85544;SDS011;75982;52.834;13.846;2024-01-30T00:53:24;6.68;;;4.63;;
85544;SDS011;75982;52.834;13.846;2024-01-30T00:55:52;8.57;;;4.40;;
85544;SDS011;75982;52.834;13.846;2024-01-30T00:58:19;7.78;;;4.68;;
85544;SDS011;75982;52.834;13.846;2024-01-30T01:00:46;10.35;;;4.90;;
85544;SDS011;75982;52.834;13.846;2024-01-30T01:03:12;11.43;;;4.20;;
85544;SDS011;75982;52.834;13.846;2024-01-30T01:05:39;6.45;;;4.63;;
85544;SDS011;75982;52.834;13.846;2024-01-30T01:08:06;7.72;;;4.25;;
85544;SDS011;75982;52.834;13.846;2024-01-30T01:10:33;7.70;;;4.70;;
85544;SDS011;75982;52.834;13.846;2024-01-30T01:13:01;7.53;;;4.88;;
85544;SDS011;75982;52.834;13.846;2024-01-30T01:15:27;9.23;;;4.68;;
85544;SDS011;75982;52.834;13.846;2024-01-30T01:17:56;8.18;;;4.35;;
85544;SDS011;75982;52.834;13.846;2024-01-30T01:20:22;6.45;;;4.22;;
85544;SDS011;75982;52.834;13.846;2024-01-30T01:22:49;7.45;;;4.80;;
85544;SDS011;75982;52.834;13.846;2024-01-30T01:25:16;12.00;;;5.03;;
85544;SDS011;75982;52.834;13.846;2024-01-30T01:27:43;10.30;;;4.72;;
85544;SDS011;75982;52.834;13.846;2024-01-30T01:30:11;9.02;;;5.10;;
85544;SDS011;75982;52.834;13.846;2024-01-30T01:32:38;8.93;;;4.75;;
85544;SDS011;75982;52.834;13.846;2024-01-30T01:35:05;7.63;;;4.68;;
85544;SDS011;75982;52.834;13.846;2024-01-30T01:37:32;6.43;;;3.95;;
85544;SDS011;75982;52.834;13.846;2024-01-30T01:39:59;8.25;;;4.38;;
85544;SDS011;75982;52.834;13.846;2024-01-30T01:42:26;7.95;;;4.53;;
85544;SDS011;75982;52.834;13.846;2024-01-30T01:44:53;6.30;;;4.20;;
85544;SDS011;75982;52.834;13.846;2024-01-30T01:47:21;8.77;;;4.30;;
85544;SDS011;75982;52.834;13.846;2024-01-30T01:49:48;5.65;;;3.85;;
85544;SDS011;75982;52.834;13.846;2024-01-30T01:52:15;9.73;;;4.78;;
85544;SDS011;75982;52.834;13.846;2024-01-30T01:54:41;5.18;;;3.88;;
85544;SDS011;75982;52.834;13.846;2024-01-30T01:57:08;6.80;;;4.47;;
85544;SDS011;75982;52.834;13.846;2024-01-30T01:59:36;10.23;;;4.57;;
85544;SDS011;75982;52.834;13.846;2024-01-30T02:02:03;8.02;;;3.88;;
85544;SDS011;75982;52.834;13.846;2024-01-30T02:04:32;7.40;;;4.10;;
85544;SDS011;75982;52.834;13.846;2024-01-30T02:06:58;7.25;;;4.53;;
85544;SDS011;75982;52.834;13.846;2024-01-30T02:09:25;8.73;;;4.18;;
85544;SDS011;75982;52.834;13.846;2024-01-30T02:11:52;7.40;;;4.22;;
85544;SDS011;75982;52.834;13.846;2024-01-30T02:14:19;8.02;;;4.80;;
85544;SDS011;75982;52.834;13.846;2024-01-30T02:16:46;9.27;;;4.70;;
85544;SDS011;75982;52.834;13.846;2024-01-30T02:19:13;7.75;;;4.50;;
85544;SDS011;75982;52.834;13.846;2024-01-30T02:21:41;9.43;;;4.90;;
85544;SDS011;75982;52.834;13.846;2024-01-30T02:24:08;7.13;;;4.20;;
85544;SDS011;75982;52.834;13.846;2024-01-30T02:26:34;9.77;;;4.45;;
85544;SDS011;75982;52.834;13.846;2024-01-30T02:29:01;7.88;;;4.03;;
85544;SDS011;75982;52.834;13.846;2024-01-30T02:31:28;7.68;;;4.38;;
85544;SDS011;75982;52.834;13.846;2024-01-30T02:33:55;9.90;;;4.40;;
85544;SDS011;75982;52.834;13.846;2024-01-30T02:36:21;7.35;;;4.78;;
85544;SDS011;75982;52.834;13.846;2024-01-30T02:38:49;8.57;;;4.57;;
85544;SDS011;75982;52.834;13.846;2024-01-30T02:41:16;6.82;;;4.30;;
85544;SDS011;75982;52.834;13.846;2024-01-30T02:43:43;8.05;;;4.60;;
85544;SDS011;75982;52.834;13.846;2024-01-30T02:46:09;9.35;;;5.28;;
85544;SDS011;75982;52.834;13.846;2024-01-30T02:48:36;9.00;;;5.07;;
85544;SDS011;75982;52.834;13.846;2024-01-30T02:51:03;7.63;;;4.57;;
85544;SDS011;75982;52.834;13.846;2024-01-30T02:53:30;8.75;;;5.38;;
85544;SDS011;75982;52.834;13.846;2024-01-30T02:55:58;10.18;;;5.65;;
85544;SDS011;75982;52.834;13.846;2024-01-30T02:58:24;8.95;;;5.07;;
85544;SDS011;75982;52.834;13.846;2024-01-30T03:00:51;10.52;;;4.82;;
85544;SDS011;75982;52.834;13.846;2024-01-30T03:03:18;8.13;;;5.00;;
85544;SDS011;75982;52.834;13.846;2024-01-30T03:05:44;8.88;;;5.18;;
85544;SDS011;75982;52.834;13.846;2024-01-30T03:08:11;9.85;;;4.75;;
85544;SDS011;75982;52.834;13.846;2024-01-30T03:10:38;8.70;;;5.35;;
85544;SDS011;75982;52.834;13.846;2024-01-30T03:13:06;8.98;;;5.47;;
85544;SDS011;75982;52.834;13.846;2024-01-30T03:15:32;7.50;;;4.22;;
85544;SDS011;75982;52.834;13.846;2024-01-30T03:17:59;7.68;;;4.22;;
85544;SDS011;75982;52.834;13.846;2024-01-30T03:20:26;8.65;;;5.10;;
85544;SDS011;75982;52.834;13.846;2024-01-30T03:22:54;7.50;;;5.18;;
85544;SDS011;75982;52.834;13.846;2024-01-30T03:25:21;8.75;;;4.93;;
85544;SDS011;75982;52.834;13.846;2024-01-30T03:27:48;10.20;;;4.93;;
85544;SDS011;75982;52.834;13.846;2024-01-30T03:30:16;6.55;;;4.43;;
85544;SDS011;75982;52.834;13.846;2024-01-30T03:32:43;7.53;;;4.97;;
85544;SDS011;75982;52.834;13.846;2024-01-30T03:35:10;6.13;;;4.85;;
85544;SDS011;75982;52.834;13.846;2024-01-30T03:37:36;9.43;;;4.82;;
85544;SDS011;75982;52.834;13.846;2024-01-30T03:40:03;12.32;;;5.68;;
85544;SDS011;75982;52.834;13.846;2024-01-30T03:42:31;9.55;;;4.93;;
85544;SDS011;75982;52.834;13.846;2024-01-30T03:44:57;12.10;;;5.95;;
85544;SDS011;75982;52.834;13.846;2024-01-30T03:47:25;16.50;;;8.13;;
85544;SDS011;75982;52.834;13.846;2024-01-30T03:49:52;33.15;;;14.55;;
85544;SDS011;75982;52.834;13.846;2024-01-30T03:52:19;26.42;;;12.07;;
85544;SDS011;75982;52.834;13.846;2024-01-30T03:54:46;22.75;;;11.25;;
85544;SDS011;75982;52.834;13.846;2024-01-30T03:57:12;18.92;;;9.30;;
85544;SDS011;75982;52.834;13.846;2024-01-30T03:59:41;13.55;;;6.80;;
85544;SDS011;75982;52.834;13.846;2024-01-30T04:02:08;11.65;;;6.47;;
85544;SDS011;75982;52.834;13.846;2024-01-30T04:04:37;12.60;;;5.90;;
85544;SDS011;75982;52.834;13.846;2024-01-30T04:07:04;9.80;;;6.35;;
85544;SDS011;75982;52.834;13.846;2024-01-30T04:09:31;13.30;;;6.53;;
85544;SDS011;75982;52.834;13.846;2024-01-30T04:11:58;9.48;;;5.78;;
85544;SDS011;75982;52.834;13.846;2024-01-30T04:14:24;11.30;;;5.60;;
85544;SDS011;75982;52.834;13.846;2024-01-30T04:16:51;7.82;;;5.40;;
85544;SDS011;75982;52.834;13.846;2024-01-30T04:19:18;8.65;;;5.63;;
85544;SDS011;75982;52.834;13.846;2024-01-30T04:21:46;13.60;;;5.80;;
85544;SDS011;75982;52.834;13.846;2024-01-30T04:24:12;10.90;;;5.80;;
85544;SDS011;75982;52.834;13.846;2024-01-30T04:26:39;11.45;;;5.78;;
85544;SDS011;75982;52.834;13.846;2024-01-30T04:29:06;7.80;;;5.57;;
85544;SDS011;75982;52.834;13.846;2024-01-30T04:31:32;9.10;;;6.40;;
85544;SDS011;75982;52.834;13.846;2024-01-30T04:33:59;9.23;;;5.75;;
85544;SDS011;75982;52.834;13.846;2024-01-30T04:36:26;7.95;;;4.95;;
85544;SDS011;75982;52.834;13.846;2024-01-30T04:38:54;7.82;;;5.18;;
85544;SDS011;75982;52.834;13.846;2024-01-30T04:41:20;12.40;;;6.10;;
85544;SDS011;75982;52.834;13.846;2024-01-30T04:43:47;8.82;;;5.38;;
85544;SDS011;75982;52.834;13.846;2024-01-30T04:46:14;8.57;;;5.10;;
85544;SDS011;75982;52.834;13.846;2024-01-30T04:48:40;7.63;;;5.22;;
85544;SDS011;75982;52.834;13.846;2024-01-30T04:51:07;9.23;;;4.85;;
85544;SDS011;75982;52.834;13.846;2024-01-30T04:53:36;11.43;;;5.78;;
85544;SDS011;75982;52.834;13.846;2024-01-30T04:56:04;8.98;;;5.38;;
85544;SDS011;75982;52.834;13.846;2024-01-30T04:58:31;10.27;;;5.07;;
85544;SDS011;75982;52.834;13.846;2024-01-30T05:00:58;9.23;;;5.45;;
85544;SDS011;75982;52.834;13.846;2024-01-30T05:03:25;10.05;;;5.18;;
85544;SDS011;75982;52.834;13.846;2024-01-30T05:05:52;10.45;;;5.25;;
85544;SDS011;75982;52.834;13.846;2024-01-30T05:08:18;11.13;;;6.22;;
85544;SDS011;75982;52.834;13.846;2024-01-30T05:10:45;8.20;;;4.78;;
85544;SDS011;75982;52.834;13.846;2024-01-30T05:13:13;8.15;;;5.75;;
85544;SDS011;75982;52.834;13.846;2024-01-30T05:15:40;9.85;;;6.00;;
85544;SDS011;75982;52.834;13.846;2024-01-30T05:18:07;12.43;;;7.13;;
85544;SDS011;75982;52.834;13.846;2024-01-30T05:20:36;10.50;;;7.32;;
85544;SDS011;75982;52.834;13.846;2024-01-30T05:23:03;10.77;;;6.70;;
85544;SDS011;75982;52.834;13.846;2024-01-30T05:25:30;11.18;;;6.32;;
85544;SDS011;75982;52.834;13.846;2024-01-30T05:27:56;7.63;;;4.70;;
85544;SDS011;75982;52.834;13.846;2024-01-30T05:30:25;9.10;;;6.25;;
85544;SDS011;75982;52.834;13.846;2024-01-30T05:32:51;8.95;;;6.22;;
85544;SDS011;75982;52.834;13.846;2024-01-30T05:35:18;11.10;;;6.03;;
85544;SDS011;75982;52.834;13.846;2024-01-30T05:37:45;8.63;;;5.78;;
85544;SDS011;75982;52.834;13.846;2024-01-30T05:40:11;10.35;;;6.85;;
85544;SDS011;75982;52.834;13.846;2024-01-30T05:42:38;10.90;;;5.78;;
85544;SDS011;75982;52.834;13.846;2024-01-30T05:45:05;16.80;;;11.52;;
85544;SDS011;75982;52.834;13.846;2024-01-30T05:47:34;10.25;;;5.90;;
85544;SDS011;75982;52.834;13.846;2024-01-30T05:50:01;8.68;;;5.28;;
85544;SDS011;75982;52.834;13.846;2024-01-30T05:52:27;9.00;;;5.30;;
85544;SDS011;75982;52.834;13.846;2024-01-30T05:54:54;11.57;;;5.63;;
85544;SDS011;75982;52.834;13.846;2024-01-30T05:57:21;12.00;;;6.00;;
85544;SDS011;75982;52.834;13.846;2024-01-30T05:59:47;10.15;;;6.45;;
85544;SDS011;75982;52.834;13.846;2024-01-30T06:02:14;8.40;;;5.07;;
85544;SDS011;75982;52.834;13.846;2024-01-30T06:04:42;7.55;;;5.15;;
85544;SDS011;75982;52.834;13.846;2024-01-30T06:07:09;9.40;;;5.22;;
85544;SDS011;75982;52.834;13.846;2024-01-30T06:09:36;10.38;;;6.05;;
85544;SDS011;75982;52.834;13.846;2024-01-30T06:12:04;10.52;;;5.70;;
85544;SDS011;75982;52.834;13.846;2024-01-30T06:14:31;10.15;;;6.78;;
85544;SDS011;75982;52.834;13.846;2024-01-30T06:16:58;10.27;;;5.25;;
85544;SDS011;75982;52.834;13.846;2024-01-30T06:19:25;9.02;;;6.40;;
85544;SDS011;75982;52.834;13.846;2024-01-30T06:21:53;10.18;;;5.50;;
85544;SDS011;75982;52.834;13.846;2024-01-30T06:24:20;9.40;;;5.85;;
85544;SDS011;75982;52.834;13.846;2024-01-30T06:26:46;11.95;;;6.78;;
85544;SDS011;75982;52.834;13.846;2024-01-30T06:29:13;8.52;;;5.63;;
85544;SDS011;75982;52.834;13.846;2024-01-30T06:31:43;12.20;;;6.78;;
85544;SDS011;75982;52.834;13.846;2024-01-30T06:34:10;11.15;;;5.97;;
85544;SDS011;75982;52.834;13.846;2024-01-30T06:36:37;10.43;;;6.35;;
85544;SDS011;75982;52.834;13.846;2024-01-30T06:39:05;14.10;;;5.95;;
85544;SDS011;75982;52.834;13.846;2024-01-30T06:41:31;11.65;;;6.55;;
85544;SDS011;75982;52.834;13.846;2024-01-30T06:43:58;13.75;;;6.68;;
85544;SDS011;75982;52.834;13.846;2024-01-30T06:46:25;10.68;;;6.47;;
85544;SDS011;75982;52.834;13.846;2024-01-30T06:48:51;11.68;;;6.80;;
85544;SDS011;75982;52.834;13.846;2024-01-30T06:51:18;9.68;;;5.93;;
85544;SDS011;75982;52.834;13.846;2024-01-30T06:53:45;11.70;;;6.80;;
85544;SDS011;75982;52.834;13.846;2024-01-30T06:56:13;12.80;;;6.50;;
85544;SDS011;75982;52.834;13.846;2024-01-30T06:58:40;13.38;;;5.78;;
85544;SDS011;75982;52.834;13.846;2024-01-30T07:01:06;12.40;;;6.90;;
85544;SDS011;75982;52.834;13.846;2024-01-30T07:03:33;11.82;;;6.00;;
85544;SDS011;75982;52.834;13.846;2024-01-30T07:06:00;8.23;;;5.63;;
85544;SDS011;75982;52.834;13.846;2024-01-30T07:08:26;10.88;;;6.20;;
85544;SDS011;75982;52.834;13.846;2024-01-30T07:10:53;12.77;;;6.70;;
85544;SDS011;75982;52.834;13.846;2024-01-30T07:13:24;15.15;;;10.25;;
85544;SDS011;75982;52.834;13.846;2024-01-30T07:15:51;11.68;;;8.73;;
85544;SDS011;75982;52.834;13.846;2024-01-30T07:18:18;15.85;;;9.82;;
85544;SDS011;75982;52.834;13.846;2024-01-30T07:20:44;12.80;;;8.60;;
85544;SDS011;75982;52.834;13.846;2024-01-30T07:23:11;13.75;;;8.02;;
85544;SDS011;75982;52.834;13.846;2024-01-30T07:25:38;12.57;;;7.03;;
85544;SDS011;75982;52.834;13.846;2024-01-30T07:28:07;15.23;;;8.73;;
85544;SDS011;75982;52.834;13.846;2024-01-30T07:30:35;16.10;;;9.23;;
85544;SDS011;75982;52.834;13.846;2024-01-30T07:33:01;14.52;;;7.50;;
85544;SDS011;75982;52.834;13.846;2024-01-30T07:35:28;18.88;;;10.32;;
85544;SDS011;75982;52.834;13.846;2024-01-30T07:37:55;33.60;;;16.95;;
85544;SDS011;75982;52.834;13.846;2024-01-30T07:40:22;28.70;;;13.98;;
85544;SDS011;75982;52.834;13.846;2024-01-30T07:42:48;20.65;;;10.60;;
85544;SDS011;75982;52.834;13.846;2024-01-30T07:45:15;18.75;;;9.65;;
85544;SDS011;75982;52.834;13.846;2024-01-30T07:47:43;18.83;;;11.32;;
85544;SDS011;75982;52.834;13.846;2024-01-30T07:50:10;22.85;;;10.23;;
85544;SDS011;75982;52.834;13.846;2024-01-30T07:52:37;15.02;;;8.35;;
85544;SDS011;75982;52.834;13.846;2024-01-30T07:55:03;21.33;;;9.02;;
85544;SDS011;75982;52.834;13.846;2024-01-30T07:57:31;29.48;;;10.23;;
85544;SDS011;75982;52.834;13.846;2024-01-30T07:59:57;15.75;;;7.65;;
85544;SDS011;75982;52.834;13.846;2024-01-30T08:02:24;14.45;;;7.78;;
85544;SDS011;75982;52.834;13.846;2024-01-30T08:04:52;11.60;;;6.82;;
85544;SDS011;75982;52.834;13.846;2024-01-30T08:07:19;15.13;;;7.15;;
85544;SDS011;75982;52.834;13.846;2024-01-30T08:09:46;13.88;;;7.43;;
85544;SDS011;75982;52.834;13.846;2024-01-30T08:12:12;13.50;;;8.48;;
85544;SDS011;75982;52.834;13.846;2024-01-30T08:14:39;13.82;;;7.82;;
85544;SDS011;75982;52.834;13.846;2024-01-30T08:17:06;15.35;;;7.90;;
85544;SDS011;75982;52.834;13.846;2024-01-30T08:19:32;14.75;;;7.75;;
85544;SDS011;75982;52.834;13.846;2024-01-30T08:22:01;15.73;;;8.77;;
85544;SDS011;75982;52.834;13.846;2024-01-30T08:24:27;12.73;;;8.38;;
85544;SDS011;75982;52.834;13.846;2024-01-30T08:26:54;18.27;;;11.27;;
85544;SDS011;75982;52.834;13.846;2024-01-30T08:29:21;22.42;;;13.40;;
85544;SDS011;75982;52.834;13.846;2024-01-30T08:31:47;16.65;;;10.20;;
85544;SDS011;75982;52.834;13.846;2024-01-30T08:34:14;18.80;;;11.00;;
85544;SDS011;75982;52.834;13.846;2024-01-30T08:36:41;20.98;;;11.80;;
85544;SDS011;75982;52.834;13.846;2024-01-30T08:39:09;22.08;;;14.02;;
85544;SDS011;75982;52.834;13.846;2024-01-30T08:41:36;17.65;;;10.38;;
85544;SDS011;75982;52.834;13.846;2024-01-30T08:44:02;19.17;;;9.75;;
85544;SDS011;75982;52.834;13.846;2024-01-30T08:46:29;19.70;;;10.15;;
85544;SDS011;75982;52.834;13.846;2024-01-30T08:48:56;21.52;;;12.05;;
85544;SDS011;75982;52.834;13.846;2024-01-30T08:51:23;19.58;;;11.82;;
85544;SDS011;75982;52.834;13.846;2024-01-30T08:53:50;23.38;;;12.30;;
85544;SDS011;75982;52.834;13.846;2024-01-30T08:56:18;20.20;;;11.25;;
85544;SDS011;75982;52.834;13.846;2024-01-30T08:58:44;30.55;;;17.58;;
85544;SDS011;75982;52.834;13.846;2024-01-30T09:01:11;19.40;;;12.23;;
85544;SDS011;75982;52.834;13.846;2024-01-30T09:03:38;14.73;;;8.60;;
85544;SDS011;75982;52.834;13.846;2024-01-30T09:06:07;17.17;;;10.30;;
85544;SDS011;75982;52.834;13.846;2024-01-30T09:08:34;16.08;;;10.00;;
85544;SDS011;75982;52.834;13.846;2024-01-30T09:11:01;15.38;;;9.70;;
85544;SDS011;75982;52.834;13.846;2024-01-30T09:13:29;13.73;;;7.68;;
85544;SDS011;75982;52.834;13.846;2024-01-30T09:15:56;14.27;;;7.95;;
85544;SDS011;75982;52.834;13.846;2024-01-30T09:18:23;14.38;;;7.95;;
85544;SDS011;75982;52.834;13.846;2024-01-30T09:20:49;22.52;;;9.02;;
85544;SDS011;75982;52.834;13.846;2024-01-30T09:23:16;17.42;;;8.00;;
85544;SDS011;75982;52.834;13.846;2024-01-30T09:25:43;12.23;;;7.18;;
85544;SDS011;75982;52.834;13.846;2024-01-30T09:28:09;19.65;;;11.02;;
85544;SDS011;75982;52.834;13.846;2024-01-30T09:30:37;20.33;;;11.25;;
85544;SDS011;75982;52.834;13.846;2024-01-30T09:33:04;12.35;;;8.40;;
85544;SDS011;75982;52.834;13.846;2024-01-30T09:35:31;10.40;;;6.88;;
85544;SDS011;75982;52.834;13.846;2024-01-30T09:37:58;9.77;;;7.45;;
85544;SDS011;75982;52.834;13.846;2024-01-30T09:40:25;10.63;;;8.13;;
85544;SDS011;75982;52.834;13.846;2024-01-30T09:42:51;15.32;;;7.97;;
85544;SDS011;75982;52.834;13.846;2024-01-30T09:45:18;13.05;;;7.85;;
85544;SDS011;75982;52.834;13.846;2024-01-30T09:47:47;13.77;;;7.60;;
85544;SDS011;75982;52.834;13.846;2024-01-30T09:50:14;9.77;;;6.88;;
85544;SDS011;75982;52.834;13.846;2024-01-30T09:52:42;12.98;;;8.07;;
85544;SDS011;75982;52.834;13.846;2024-01-30T09:55:09;10.40;;;6.90;;
85544;SDS011;75982;52.834;13.846;2024-01-30T09:57:36;13.35;;;7.75;;
85544;SDS011;75982;52.834;13.846;2024-01-30T10:00:02;15.00;;;8.80;;
85544;SDS011;75982;52.834;13.846;2024-01-30T10:02:30;11.13;;;7.50;;
85544;SDS011;75982;52.834;13.846;2024-01-30T10:04:59;11.48;;;7.43;;
85544;SDS011;75982;52.834;13.846;2024-01-30T10:09:54;13.85;;;6.00;;
85544;SDS011;75982;52.834;13.846;2024-01-30T10:12:20;10.43;;;5.78;;
85544;SDS011;75982;52.834;13.846;2024-01-30T10:14:47;9.77;;;6.07;;
85544;SDS011;75982;52.834;13.846;2024-01-30T10:17:14;11.52;;;6.18;;
85544;SDS011;75982;52.834;13.846;2024-01-30T10:19:53;12.10;;;6.15;;
85544;SDS011;75982;52.834;13.846;2024-01-30T10:22:22;10.80;;;5.43;;
85544;SDS011;75982;52.834;13.846;2024-01-30T10:24:49;10.40;;;5.85;;
85544;SDS011;75982;52.834;13.846;2024-01-30T10:27:16;10.25;;;6.93;;
85544;SDS011;75982;52.834;13.846;2024-01-30T10:29:42;10.20;;;5.40;;
85544;SDS011;75982;52.834;13.846;2024-01-30T10:32:09;10.48;;;6.20;;
85544;SDS011;75982;52.834;13.846;2024-01-30T10:34:35;14.00;;;6.93;;
85544;SDS011;75982;52.834;13.846;2024-01-30T10:37:06;10.35;;;5.60;;
85544;SDS011;75982;52.834;13.846;2024-01-30T10:39:37;9.73;;;5.95;;
85544;SDS011;75982;52.834;13.846;2024-01-30T10:42:05;9.73;;;5.40;;
85544;SDS011;75982;52.834;13.846;2024-01-30T10:44:34;11.27;;;6.43;;
85544;SDS011;75982;52.834;13.846;2024-01-30T10:47:05;8.23;;;5.82;;
85544;SDS011;75982;52.834;13.846;2024-01-30T10:49:37;8.27;;;5.97;;
85544;SDS011;75982;52.834;13.846;2024-01-30T10:52:05;7.75;;;5.90;;
85544;SDS011;75982;52.834;13.846;2024-01-30T10:54:35;8.75;;;5.80;;
85544;SDS011;75982;52.834;13.846;2024-01-30T10:57:03;10.65;;;5.88;;
85544;SDS011;75982;52.834;13.846;2024-01-30T10:59:31;10.10;;;5.65;;
85544;SDS011;75982;52.834;13.846;2024-01-30T11:01:59;10.23;;;6.18;;
85544;SDS011;75982;52.834;13.846;2024-01-30T11:04:27;10.50;;;6.60;;
85544;SDS011;75982;52.834;13.846;2024-01-30T11:07:01;9.60;;;6.43;;
85544;SDS011;75982;52.834;13.846;2024-01-30T11:09:28;9.18;;;5.55;;
85544;SDS011;75982;52.834;13.846;2024-01-30T11:11:57;8.88;;;5.75;;
85544;SDS011;75982;52.834;13.846;2024-01-30T11:14:24;9.15;;;5.72;;
85544;SDS011;75982;52.834;13.846;2024-01-30T11:16:52;9.60;;;6.28;;
85544;SDS011;75982;52.834;13.846;2024-01-30T11:19:24;9.27;;;6.70;;
85544;SDS011;75982;52.834;13.846;2024-01-30T11:21:52;10.63;;;5.90;;
85544;SDS011;75982;52.834;13.846;2024-01-30T11:24:19;10.00;;;5.95;;
85544;SDS011;75982;52.834;13.846;2024-01-30T11:26:47;11.70;;;5.78;;
85544;SDS011;75982;52.834;13.846;2024-01-30T11:29:16;8.45;;;5.63;;
85544;SDS011;75982;52.834;13.846;2024-01-30T11:31:51;7.82;;;5.88;;
85544;SDS011;75982;52.834;13.846;2024-01-30T11:34:18;9.73;;;5.72;;
85544;SDS011;75982;52.834;13.846;2024-01-30T11:36:47;7.07;;;5.25;;
85544;SDS011;75982;52.834;13.846;2024-01-30T11:39:18;8.82;;;5.93;;
85544;SDS011;75982;52.834;13.846;2024-01-30T11:41:46;8.80;;;5.90;;
85544;SDS011;75982;52.834;13.846;2024-01-30T11:44:18;8.80;;;5.70;;
85544;SDS011;75982;52.834;13.846;2024-01-30T11:46:45;8.82;;;5.60;;
85544;SDS011;75982;52.834;13.846;2024-01-30T11:49:11;8.00;;;5.07;;
85544;SDS011;75982;52.834;13.846;2024-01-30T11:51:38;10.25;;;6.32;;
85544;SDS011;75982;52.834;13.846;2024-01-30T11:54:05;10.45;;;6.70;;
85544;SDS011;75982;52.834;13.846;2024-01-30T11:56:33;10.43;;;5.95;;
85544;SDS011;75982;52.834;13.846;2024-01-30T11:59:00;10.93;;;6.20;;
85544;SDS011;75982;52.834;13.846;2024-01-30T12:01:28;9.00;;;5.38;;
85544;SDS011;75982;52.834;13.846;2024-01-30T12:03:58;9.60;;;6.38;;
85544;SDS011;75982;52.834;13.846;2024-01-30T12:06:25;13.57;;;6.78;;
85544;SDS011;75982;52.834;13.846;2024-01-30T12:08:56;9.85;;;5.75;;
85544;SDS011;75982;52.834;13.846;2024-01-30T12:11:23;10.38;;;6.10;;
85544;SDS011;75982;52.834;13.846;2024-01-30T12:13:50;8.90;;;6.45;;
85544;SDS011;75982;52.834;13.846;2024-01-30T12:16:17;8.80;;;5.85;;
85544;SDS011;75982;52.834;13.846;2024-01-30T12:18:46;10.93;;;5.32;;
85544;SDS011;75982;52.834;13.846;2024-01-30T12:21:15;8.65;;;5.40;;
85544;SDS011;75982;52.834;13.846;2024-01-30T12:23:42;8.57;;;5.82;;
85544;SDS011;75982;52.834;13.846;2024-01-30T12:26:09;12.15;;;6.40;;
85544;SDS011;75982;52.834;13.846;2024-01-30T12:28:46;9.80;;;5.75;;
85544;SDS011;75982;52.834;13.846;2024-01-30T12:31:13;8.60;;;5.53;;
85544;SDS011;75982;52.834;13.846;2024-01-30T12:33:40;10.45;;;5.47;;
85544;SDS011;75982;52.834;13.846;2024-01-30T12:36:08;10.32;;;5.53;;
85544;SDS011;75982;52.834;13.846;2024-01-30T12:38:36;10.00;;;5.60;;
85544;SDS011;75982;52.834;13.846;2024-01-30T12:41:02;10.40;;;5.80;;
85544;SDS011;75982;52.834;13.846;2024-01-30T12:43:29;9.45;;;5.30;;
85544;SDS011;75982;52.834;13.846;2024-01-30T12:46:04;10.20;;;5.57;;
85544;SDS011;75982;52.834;13.846;2024-01-30T12:48:31;9.45;;;5.57;;
85544;SDS011;75982;52.834;13.846;2024-01-30T12:50:58;9.95;;;5.40;;
85544;SDS011;75982;52.834;13.846;2024-01-30T12:53:26;7.47;;;5.30;;
85544;SDS011;75982;52.834;13.846;2024-01-30T12:55:53;10.02;;;5.20;;
85544;SDS011;75982;52.834;13.846;2024-01-30T12:58:20;10.45;;;5.15;;
85544;SDS011;75982;52.834;13.846;2024-01-30T13:00:47;8.52;;;5.00;;
85544;SDS011;75982;52.834;13.846;2024-01-30T13:03:13;8.45;;;4.72;;
85544;SDS011;75982;52.834;13.846;2024-01-30T13:05:40;8.57;;;5.50;;
85544;SDS011;75982;52.834;13.846;2024-01-30T13:08:07;7.18;;;4.50;;
85544;SDS011;75982;52.834;13.846;2024-01-30T13:10:35;9.13;;;5.22;;
85544;SDS011;75982;52.834;13.846;2024-01-30T13:13:02;7.72;;;5.57;;
85544;SDS011;75982;52.834;13.846;2024-01-30T13:15:29;7.60;;;5.30;;
85544;SDS011;75982;52.834;13.846;2024-01-30T13:17:55;7.22;;;5.00;;
85544;SDS011;75982;52.834;13.846;2024-01-30T13:20:22;9.45;;;5.50;;
85544;SDS011;75982;52.834;13.846;2024-01-30T13:22:49;7.85;;;4.50;;
85544;SDS011;75982;52.834;13.846;2024-01-30T13:25:16;6.70;;;4.93;;
85544;SDS011;75982;52.834;13.846;2024-01-30T13:27:44;11.35;;;5.25;;
85544;SDS011;75982;52.834;13.846;2024-01-30T13:30:11;7.45;;;5.28;;
85544;SDS011;75982;52.834;13.846;2024-01-30T13:32:38;6.57;;;4.82;;
85544;SDS011;75982;52.834;13.846;2024-01-30T13:35:05;8.15;;;5.53;;
85544;SDS011;75982;52.834;13.846;2024-01-30T13:37:31;6.55;;;4.47;;
85544;SDS011;75982;52.834;13.846;2024-01-30T13:39:58;8.40;;;4.50;;
85544;SDS011;75982;52.834;13.846;2024-01-30T13:42:28;6.45;;;4.57;;
85544;SDS011;75982;52.834;13.846;2024-01-30T13:44:56;6.63;;;4.72;;
85544;SDS011;75982;52.834;13.846;2024-01-30T13:47:23;7.20;;;5.03;;
85544;SDS011;75982;52.834;13.846;2024-01-30T13:49:49;6.05;;;4.65;;
85544;SDS011;75982;52.834;13.846;2024-01-30T13:52:16;8.50;;;4.97;;
85544;SDS011;75982;52.834;13.846;2024-01-30T13:54:43;8.05;;;5.05;;
85544;SDS011;75982;52.834;13.846;2024-01-30T13:57:10;8.20;;;4.88;;
85544;SDS011;75982;52.834;13.846;2024-01-30T13:59:37;9.82;;;4.85;;
85544;SDS011;75982;52.834;13.846;2024-01-30T14:02:06;9.05;;;5.22;;
85544;SDS011;75982;52.834;13.846;2024-01-30T14:04:32;8.57;;;5.55;;
85544;SDS011;75982;52.834;13.846;2024-01-30T14:06:59;8.25;;;5.55;;
85544;SDS011;75982;52.834;13.846;2024-01-30T14:09:30;9.25;;;5.35;;
85544;SDS011;75982;52.834;13.846;2024-01-30T14:11:57;10.00;;;5.80;;
85544;SDS011;75982;52.834;13.846;2024-01-30T14:14:24;9.02;;;5.18;;
85544;SDS011;75982;52.834;13.846;2024-01-30T14:16:50;7.00;;;4.65;;
85544;SDS011;75982;52.834;13.846;2024-01-30T14:19:18;10.98;;;5.90;;
85544;SDS011;75982;52.834;13.846;2024-01-30T14:21:45;9.35;;;5.25;;
85544;SDS011;75982;52.834;13.846;2024-01-30T14:24:12;8.25;;;5.68;;
85544;SDS011;75982;52.834;13.846;2024-01-30T14:26:39;7.50;;;4.97;;
85544;SDS011;75982;52.834;13.846;2024-01-30T14:29:05;12.38;;;6.57;;